createdAt,value
2017-09-19T00:01:53.637Z,42.57
2017-09-19T00:04:21.165Z,38.07
2017-09-19T00:06:49.433Z,38.53
2017-09-19T00:09:17.755Z,48.40
2017-09-19T00:11:45.253Z,41.10
2017-09-19T00:14:12.776Z,45.20
2017-09-19T00:16:41.037Z,47.27
2017-09-19T00:19:09.332Z,44.80
2017-09-19T00:21:36.825Z,40.87
2017-09-19T00:24:04.318Z,38.67
2017-09-19T00:26:31.834Z,44.70
2017-09-19T00:29:00.095Z,46.50
2017-09-19T00:31:28.389Z,44.23
2017-09-19T00:33:55.917Z,45.47
2017-09-19T00:36:23.409Z,46.27
2017-09-19T00:38:50.944Z,43.77
2017-09-19T00:41:18.436Z,44.00
2017-09-19T00:43:46.697Z,40.00
2017-09-19T00:46:14.993Z,47.33
2017-09-19T00:48:42.499Z,47.03
2017-09-19T00:51:10.005Z,38.73
2017-09-19T00:53:37.530Z,40.00
2017-09-19T00:56:05.062Z,46.90
2017-09-19T00:58:32.583Z,43.60
2017-09-19T01:01:00.853Z,39.67
2017-09-19T01:03:28.391Z,42.13
2017-09-19T01:05:55.899Z,41.90
2017-09-19T01:08:23.442Z,37.10
2017-09-19T01:10:50.937Z,43.03
2017-09-19T01:13:18.529Z,43.03
2017-09-19T01:15:46.084Z,34.30
2017-09-19T01:18:14.356Z,39.37
2017-09-19T01:20:42.641Z,36.67
2017-09-19T01:23:10.146Z,38.20
2017-09-19T01:25:37.670Z,39.40
2017-09-19T01:28:05.159Z,38.00
2017-09-19T01:30:32.685Z,37.17
2017-09-19T01:33:00.193Z,43.80
2017-09-19T01:35:27.713Z,42.10
2017-09-19T01:37:55.244Z,37.57
2017-09-19T01:40:22.742Z,35.80
2017-09-19T01:42:50.269Z,32.87
2017-09-19T01:45:17.762Z,33.50
2017-09-19T01:47:45.289Z,37.57
2017-09-19T01:50:13.557Z,36.30
2017-09-19T01:52:41.837Z,36.73
2017-09-19T01:55:09.334Z,36.47
2017-09-19T01:57:36.873Z,36.47
2017-09-19T02:00:04.378Z,37.27
2017-09-19T02:02:31.880Z,33.67
2017-09-19T02:05:00.177Z,36.87
2017-09-19T02:07:27.684Z,34.03
2017-09-19T02:09:55.976Z,42.00
2017-09-19T02:12:23.472Z,33.90
2017-09-19T02:14:51.006Z,35.47
2017-09-19T02:17:18.515Z,31.40
2017-09-19T02:19:46.009Z,39.17
2017-09-19T02:22:13.545Z,36.73
2017-09-19T02:24:41.040Z,33.00
2017-09-19T02:27:08.542Z,32.17
2017-09-19T02:29:36.069Z,36.73
2017-09-19T02:32:03.578Z,35.30
2017-09-19T02:34:31.113Z,40.30
2017-09-19T02:36:58.630Z,36.10
2017-09-19T02:39:26.892Z,35.43
2017-09-19T02:41:54.430Z,35.23
2017-09-19T02:44:22.710Z,38.70
2017-09-19T02:46:50.219Z,40.23
2017-09-19T02:49:17.750Z,42.07
2017-09-19T02:51:45.280Z,40.17
2017-09-19T02:54:12.781Z,44.03
2017-09-19T02:56:40.323Z,40.03
2017-09-19T02:59:07.821Z,35.33
2017-09-19T03:01:35.312Z,37.87
2017-09-19T03:04:02.839Z,36.37
2017-09-19T03:06:31.093Z,36.10
2017-09-19T03:08:59.344Z,40.00
2017-09-19T03:11:26.881Z,37.37
2017-09-19T03:13:54.379Z,34.73
2017-09-19T03:16:21.884Z,30.40
2017-09-19T03:18:50.165Z,33.03
2017-09-19T03:21:17.661Z,42.87
2017-09-19T03:23:45.194Z,41.80
2017-09-19T03:26:12.688Z,37.73
2017-09-19T03:28:40.192Z,41.03
2017-09-19T03:31:07.713Z,38.17
2017-09-19T03:33:35.218Z,38.70
2017-09-19T03:36:02.740Z,34.20
2017-09-19T03:38:31.020Z,32.80
2017-09-19T03:40:59.494Z,34.80
2017-09-19T03:43:26.993Z,29.80
2017-09-19T03:45:54.528Z,37.10
2017-09-19T03:48:22.026Z,30.60
2017-09-19T03:50:49.525Z,30.53
2017-09-19T03:53:17.049Z,32.17
2017-09-19T03:55:44.543Z,31.30
2017-09-19T03:58:12.116Z,32.03
2017-09-19T04:00:39.617Z,26.10
2017-09-19T04:03:07.878Z,25.90
2017-09-19T04:05:35.413Z,34.37
2017-09-19T04:08:02.929Z,29.57
2017-09-19T04:10:30.427Z,26.50
2017-09-19T04:12:57.962Z,34.60
2017-09-19T04:15:25.480Z,31.33
2017-09-19T04:17:53.008Z,30.40
2017-09-19T04:20:20.543Z,36.60
2017-09-19T04:22:48.082Z,31.83
2017-09-19T04:25:15.589Z,34.10
2017-09-19T04:27:43.893Z,33.10
2017-09-19T04:30:11.394Z,32.77
2017-09-19T04:32:38.930Z,36.07
2017-09-19T04:35:07.196Z,34.07
2017-09-19T04:37:34.738Z,25.77
2017-09-19T04:40:02.240Z,29.80
2017-09-19T04:42:29.752Z,32.37
2017-09-19T04:44:57.288Z,28.30
2017-09-19T04:47:24.794Z,33.00
2017-09-19T04:49:53.110Z,33.03
2017-09-19T04:52:20.649Z,32.83
2017-09-19T04:54:48.144Z,30.00
2017-09-19T04:57:16.438Z,38.07
2017-09-19T04:59:43.942Z,33.73
2017-09-19T05:02:11.472Z,32.87
2017-09-19T05:04:38.996Z,41.10
2017-09-19T05:07:06.495Z,28.90
2017-09-19T05:09:34.781Z,35.30
2017-09-19T05:12:02.273Z,30.90
2017-09-19T05:14:29.788Z,32.30
2017-09-19T05:16:57.317Z,28.20
2017-09-19T05:19:24.808Z,27.30
2017-09-19T05:21:52.310Z,31.80
2017-09-19T05:24:19.878Z,24.80
2017-09-19T05:26:47.373Z,28.57
2017-09-19T05:29:14.896Z,29.33
2017-09-19T05:31:43.164Z,37.57
2017-09-19T05:34:10.689Z,32.73
2017-09-19T05:39:33.045Z,32.23
2017-09-19T05:42:00.565Z,31.73
2017-09-19T05:44:28.828Z,34.87
2017-09-19T05:47:15.634Z,33.03
2017-09-19T05:50:00.084Z,36.67
2017-09-19T05:55:30.409Z,33.00
2017-09-19T06:00:55.362Z,36.20
2017-09-19T06:06:39.919Z,24.60
2017-09-19T06:09:19.332Z,35.17
2017-09-19T06:11:48.233Z,31.27
2017-09-19T06:17:08.832Z,27.67
2017-09-19T06:19:37.433Z,33.63
2017-09-19T06:22:06.005Z,30.77
2017-09-19T06:24:57.161Z,31.47
2017-09-19T06:27:33.598Z,30.47
2017-09-19T06:30:15.661Z,28.07
2017-09-19T06:32:43.412Z,28.67
2017-09-19T06:38:04.809Z,30.50
2017-09-19T06:40:32.340Z,30.17
2017-09-19T06:43:00.617Z,31.33
2017-09-19T06:45:28.193Z,29.37
2017-09-19T06:47:55.737Z,27.30
2017-09-19T06:50:23.258Z,27.60
2017-09-19T06:52:50.841Z,27.60
2017-09-19T06:55:29.573Z,33.37
2017-09-19T06:57:57.890Z,30.07
2017-09-19T07:00:25.413Z,32.00
2017-09-19T07:02:52.913Z,35.50
2017-09-19T07:08:32.513Z,28.57
2017-09-19T07:11:09.671Z,27.77
2017-09-19T07:13:37.201Z,33.27
2017-09-19T07:16:04.742Z,26.17
2017-09-19T07:18:32.283Z,29.87
2017-09-19T07:21:00.771Z,28.80
2017-09-19T07:23:28.279Z,28.57
2017-09-19T07:25:55.797Z,24.90
2017-09-19T07:28:24.109Z,21.87
2017-09-19T07:30:52.399Z,23.30
2017-09-19T07:33:19.930Z,25.07
2017-09-19T07:35:47.538Z,17.90
2017-09-19T07:38:15.080Z,19.60
2017-09-19T07:40:42.588Z,20.60
2017-09-19T07:43:10.095Z,19.73
2017-09-19T07:45:37.629Z,20.87
2017-09-19T07:48:05.134Z,23.40
2017-09-19T07:50:33.433Z,22.90
2017-09-19T07:53:00.984Z,26.13
2017-09-19T07:55:28.521Z,29.10
2017-09-19T07:57:56.901Z,27.40
2017-09-19T08:06:10.514Z,27.70
2017-09-19T08:09:01.320Z,25.40
2017-09-19T08:11:28.853Z,25.13
2017-09-19T08:13:56.366Z,24.83
2017-09-19T08:16:23.903Z,31.10
2017-09-19T08:18:51.418Z,32.90
2017-09-19T08:21:18.936Z,37.70
2017-09-19T08:23:46.423Z,37.10
2017-09-19T08:26:13.952Z,37.27
2017-09-19T08:28:41.484Z,39.27
2017-09-19T08:31:09.021Z,33.57
2017-09-19T08:33:36.527Z,35.23
2017-09-19T08:36:04.054Z,41.30
2017-09-19T08:38:31.569Z,34.97
2017-09-19T08:40:59.064Z,38.47
2017-09-19T08:43:26.597Z,33.43
2017-09-19T08:48:54.164Z,34.50
2017-09-19T08:51:21.705Z,30.70
2017-09-19T08:53:49.208Z,29.57
2017-09-19T08:56:16.754Z,31.80
2017-09-19T08:58:44.514Z,34.67
2017-09-19T09:01:31.274Z,35.30
2017-09-19T09:09:37.545Z,32.20
2017-09-19T09:15:01.956Z,36.23
2017-09-19T09:23:32.921Z,35.23
2017-09-19T09:26:04.740Z,47.03
2017-09-19T09:28:43.204Z,38.20
2017-09-19T09:34:05.809Z,48.57
2017-09-19T09:36:34.060Z,41.30
2017-09-19T09:39:01.596Z,45.50
2017-09-19T09:41:29.102Z,39.93
2017-09-19T09:43:56.677Z,46.40
2017-09-19T09:46:30.668Z,49.07
2017-09-19T09:52:03.151Z,41.27
2017-09-19T09:55:00.574Z,47.90
2017-09-19T09:57:34.799Z,35.60
2017-09-19T10:05:39.910Z,40.77
2017-09-19T10:08:15.083Z,39.90
2017-09-19T10:11:02.010Z,38.50
2017-09-19T10:16:22.123Z,40.07
2017-09-19T10:18:49.659Z,39.70
2017-09-19T10:21:17.173Z,34.50
2017-09-19T10:23:44.674Z,29.93
2017-09-19T10:26:12.269Z,32.07
2017-09-19T10:28:39.778Z,32.23
2017-09-19T10:34:05.487Z,28.47
2017-09-19T10:39:33.012Z,32.87
2017-09-19T10:42:10.913Z,29.90
2017-09-19T10:44:38.550Z,26.57
2017-09-19T10:52:44.552Z,26.60
2017-09-19T10:55:12.861Z,28.13
2017-09-19T11:00:33.941Z,30.47
2017-09-19T11:03:02.420Z,31.97
2017-09-19T11:18:01.610Z,27.60
2017-09-19T11:20:43.585Z,30.00
2017-09-19T11:32:29.658Z,24.67
2017-09-19T11:34:57.331Z,32.10
2017-09-19T11:37:24.876Z,29.03
2017-09-19T11:39:52.512Z,33.80
2017-09-19T11:42:20.018Z,32.40
2017-09-19T11:44:47.550Z,39.77
2017-09-19T11:47:15.825Z,47.30
2017-09-19T11:49:43.338Z,50.13
2017-09-19T11:52:11.655Z,36.03
2017-09-19T11:54:39.176Z,45.40
2017-09-19T11:57:06.696Z,44.37
2017-09-19T11:59:34.209Z,40.70
2017-09-19T12:02:01.752Z,42.00
2017-09-19T12:04:29.252Z,46.40
2017-09-19T12:06:56.767Z,41.60
2017-09-19T12:09:25.075Z,42.50
2017-09-19T12:11:52.591Z,41.10
2017-09-19T12:14:20.098Z,40.70
2017-09-19T12:16:47.629Z,36.97
2017-09-19T12:19:15.184Z,37.07
2017-09-19T12:21:42.729Z,36.60
2017-09-19T12:24:10.244Z,36.37
2017-09-19T12:26:37.745Z,38.20
2017-09-19T12:29:05.308Z,32.43
2017-09-19T12:31:32.837Z,35.50
2017-09-19T12:34:00.334Z,32.03
2017-09-19T12:36:27.861Z,35.40
2017-09-19T12:38:55.367Z,32.97
2017-09-19T12:41:22.908Z,30.50
2017-09-19T12:43:51.181Z,32.70
2017-09-19T12:46:18.728Z,32.43
2017-09-19T12:48:46.237Z,33.33
2017-09-19T12:51:14.505Z,28.47
2017-09-19T12:53:42.033Z,24.70
2017-09-19T12:56:11.101Z,29.27
2017-09-19T12:58:39.416Z,24.90
2017-09-19T13:01:06.926Z,23.13
2017-09-19T13:03:34.466Z,20.03
2017-09-19T13:06:01.982Z,20.17
2017-09-19T13:08:29.489Z,22.80
2017-09-19T13:10:57.028Z,21.03
2017-09-19T13:13:24.589Z,26.33
2017-09-19T13:15:52.140Z,17.30
2017-09-19T13:18:19.669Z,22.13
2017-09-19T13:20:47.173Z,22.90
2017-09-19T13:23:14.681Z,21.93
2017-09-19T13:25:42.241Z,21.80
2017-09-19T13:28:10.508Z,20.20
2017-09-19T13:30:38.057Z,25.60
2017-09-19T13:33:17.571Z,19.40
2017-09-19T13:35:45.879Z,23.47
2017-09-19T13:38:13.399Z,19.30
2017-09-19T13:40:40.909Z,23.53
2017-09-19T13:43:09.219Z,21.20
2017-09-19T13:45:36.737Z,20.10
2017-09-19T13:48:05.055Z,27.83
2017-09-19T13:50:32.567Z,22.23
2017-09-19T13:53:00.090Z,17.40
2017-09-19T13:55:27.631Z,21.10
2017-09-19T13:57:55.154Z,21.80
2017-09-19T14:00:22.702Z,20.40
2017-09-19T14:02:50.974Z,21.60
2017-09-19T14:05:19.249Z,21.40
2017-09-19T14:07:46.787Z,21.70
2017-09-19T14:10:14.346Z,18.83
2017-09-19T14:12:41.845Z,20.50
2017-09-19T14:15:09.372Z,22.43
2017-09-19T14:17:36.914Z,16.97
2017-09-19T14:20:04.422Z,21.37
2017-09-19T14:22:31.958Z,19.13
2017-09-19T14:24:59.487Z,22.00
2017-09-19T14:27:27.657Z,20.23
2017-09-19T14:32:48.370Z,21.37
2017-09-19T14:38:16.819Z,24.37
2017-09-19T14:40:44.377Z,25.40
2017-09-19T14:43:11.903Z,26.73
2017-09-19T14:45:39.410Z,22.43
2017-09-19T14:48:07.710Z,26.13
2017-09-19T14:50:35.252Z,21.90
2017-09-19T14:53:02.750Z,25.77
2017-09-19T14:55:30.332Z,23.03
2017-09-19T14:57:57.834Z,28.03
2017-09-19T15:00:25.347Z,24.40
2017-09-19T15:02:52.885Z,23.23
2017-09-19T15:05:20.410Z,26.83
2017-09-19T15:07:48.685Z,24.50
2017-09-19T15:10:16.777Z,24.90
2017-09-19T15:12:44.282Z,20.87
2017-09-19T15:15:11.850Z,26.13
2017-09-19T15:17:39.365Z,25.60
2017-09-19T15:20:06.907Z,23.67
2017-09-19T15:22:34.414Z,25.73
2017-09-19T15:25:02.688Z,25.03
2017-09-19T15:27:30.988Z,22.67
2017-09-19T15:29:58.490Z,20.87
2017-09-19T15:32:26.791Z,25.47
2017-09-19T15:34:54.333Z,21.70
2017-09-19T15:37:21.826Z,25.23
2017-09-19T15:39:49.393Z,24.07
2017-09-19T15:42:16.953Z,21.43
2017-09-19T15:44:44.490Z,25.17
2017-09-19T15:47:12.014Z,26.33
2017-09-19T15:49:40.283Z,27.50
2017-09-19T15:52:07.807Z,21.97
2017-09-19T15:54:35.396Z,21.03
2017-09-19T15:57:03.714Z,22.30
2017-09-19T15:59:32.021Z,22.47
2017-09-19T16:01:59.566Z,23.80
2017-09-19T16:04:27.078Z,23.40
2017-09-19T16:06:54.600Z,24.17
2017-09-19T16:09:22.153Z,24.20
2017-09-19T16:11:50.428Z,25.67
2017-09-19T16:14:17.960Z,22.73
2017-09-19T16:16:46.262Z,23.53
2017-09-19T16:19:13.855Z,23.30
2017-09-19T16:21:41.361Z,20.40
2017-09-19T16:24:10.487Z,20.00
2017-09-19T16:26:38.077Z,23.50
2017-09-19T16:29:05.676Z,20.83
2017-09-19T16:31:33.254Z,20.47
2017-09-19T16:34:00.800Z,20.07
2017-09-19T16:36:28.371Z,20.03
2017-09-19T16:38:55.915Z,25.67
2017-09-19T16:41:23.450Z,21.53
2017-09-19T16:43:51.070Z,20.47
2017-09-19T16:46:18.658Z,20.50
2017-09-19T16:48:46.172Z,19.43
2017-09-19T16:51:14.382Z,18.60
2017-09-19T16:53:44.564Z,22.67
2017-09-19T16:56:12.798Z,19.40
2017-09-19T16:58:40.410Z,22.10
2017-09-19T17:01:07.968Z,22.83
2017-09-19T17:03:35.585Z,23.27
2017-09-19T17:06:03.183Z,24.20
2017-09-19T17:08:30.737Z,20.40
2017-09-19T17:10:58.275Z,22.70
2017-09-19T17:13:25.863Z,22.30
2017-09-19T17:15:53.378Z,22.60
2017-09-19T17:18:20.896Z,17.70
2017-09-19T17:20:48.469Z,15.43
2017-09-19T17:23:15.985Z,18.97
2017-09-19T17:25:43.536Z,19.67
2017-09-19T17:28:11.073Z,17.77
2017-09-19T17:30:38.807Z,20.13
2017-09-19T17:33:06.338Z,21.80
2017-09-19T17:35:33.915Z,17.50
2017-09-19T17:38:01.502Z,19.53
2017-09-19T17:40:29.123Z,21.20
2017-09-19T17:42:56.648Z,19.23
2017-09-19T17:45:24.260Z,18.37
2017-09-19T17:47:52.226Z,19.30
2017-09-19T17:50:19.828Z,23.03
2017-09-19T17:52:47.437Z,20.33
2017-09-19T17:55:14.968Z,19.77
2017-09-19T17:57:42.822Z,19.07
2017-09-19T18:00:10.471Z,17.83
2017-09-19T18:02:38.113Z,24.80
2017-09-19T18:05:05.718Z,21.47
2017-09-19T18:07:33.340Z,23.77
2017-09-19T18:10:00.964Z,20.03
2017-09-19T18:15:22.546Z,24.97
2017-09-19T18:17:50.114Z,20.87
2017-09-19T18:20:17.658Z,22.60
2017-09-19T18:22:45.361Z,23.30
2017-09-19T18:25:12.890Z,21.10
2017-09-19T18:27:41.380Z,34.20
2017-09-19T18:30:09.683Z,25.60
2017-09-19T18:32:37.240Z,22.73
2017-09-19T18:35:04.771Z,25.53
2017-09-19T18:37:32.960Z,24.63
2017-09-19T18:40:00.533Z,27.50
2017-09-19T18:42:28.080Z,23.90
2017-09-19T18:44:55.635Z,24.33
2017-09-19T18:47:23.137Z,22.87
2017-09-19T18:49:50.662Z,27.90
2017-09-19T18:52:19.845Z,24.37
2017-09-19T18:54:47.379Z,21.27
2017-09-19T18:57:27.016Z,24.90
2017-09-19T19:00:17.409Z,23.80
2017-09-19T19:02:45.760Z,24.17
2017-09-19T19:05:19.369Z,18.70
2017-09-19T19:07:46.914Z,20.03
2017-09-19T19:10:14.452Z,21.23
2017-09-19T19:12:41.984Z,24.10
2017-09-19T19:15:09.517Z,22.40
2017-09-19T19:17:37.858Z,18.80
2017-09-19T19:20:05.374Z,18.27
2017-09-19T19:22:32.904Z,27.43
2017-09-19T19:25:00.434Z,32.37
2017-09-19T19:27:27.935Z,22.00
2017-09-19T19:29:55.501Z,22.43
2017-09-19T19:32:23.051Z,19.50
2017-09-19T19:34:51.364Z,18.67
2017-09-19T19:37:19.785Z,23.93
2017-09-19T19:39:47.305Z,23.57
2017-09-19T19:42:14.887Z,27.23
2017-09-19T19:44:43.170Z,20.07
2017-09-19T19:47:10.690Z,24.63
2017-09-19T19:49:38.218Z,21.03
2017-09-19T19:52:05.755Z,24.40
2017-09-19T19:54:33.991Z,24.00
2017-09-19T19:57:02.284Z,27.80
2017-09-19T19:59:29.822Z,32.07
2017-09-19T20:01:57.377Z,25.40
2017-09-19T20:04:24.883Z,25.87
2017-09-19T20:06:52.403Z,24.23
2017-09-19T20:09:20.711Z,26.07
2017-09-19T20:11:52.508Z,28.60
2017-09-19T20:14:20.081Z,28.10
2017-09-19T20:16:47.641Z,31.63
2017-09-19T20:22:06.426Z,31.00
2017-09-19T20:24:33.972Z,26.30
2017-09-19T20:27:01.475Z,31.23
2017-09-19T20:29:50.802Z,32.87
2017-09-19T20:32:21.190Z,29.93
2017-09-19T20:34:49.499Z,30.87
2017-09-19T20:37:19.006Z,31.90
2017-09-19T20:39:46.549Z,26.30
2017-09-19T20:42:14.052Z,26.40
2017-09-19T20:44:41.561Z,26.30
2017-09-19T20:47:09.124Z,31.93
2017-09-19T20:49:37.412Z,31.00
2017-09-19T20:52:04.955Z,37.80
2017-09-19T20:54:32.465Z,30.87
2017-09-19T20:56:59.973Z,26.83
2017-09-19T20:59:27.511Z,30.70
2017-09-19T21:01:55.014Z,31.00
2017-09-19T21:04:28.326Z,32.80
2017-09-19T21:07:01.467Z,30.13
2017-09-19T21:09:34.726Z,31.20
2017-09-19T21:12:08.700Z,32.33
2017-09-19T21:14:41.909Z,40.97
2017-09-19T21:17:15.041Z,29.77
2017-09-19T21:19:42.935Z,30.53
2017-09-19T21:22:11.207Z,32.73
2017-09-19T21:24:38.789Z,29.47
2017-09-19T21:27:06.297Z,35.17
2017-09-19T21:29:33.827Z,30.23
2017-09-19T21:32:01.354Z,32.50
2017-09-19T21:34:29.653Z,32.80
2017-09-19T21:36:57.182Z,31.50
2017-09-19T21:39:24.683Z,26.27
2017-09-19T21:41:52.209Z,33.20
2017-09-19T21:44:19.717Z,31.90
2017-09-19T21:46:47.253Z,35.13
2017-09-19T21:49:14.786Z,33.50
2017-09-19T21:51:44.061Z,37.43
2017-09-19T21:54:12.365Z,40.53
2017-09-19T21:56:39.889Z,43.80
2017-09-19T21:59:07.440Z,33.43
2017-09-19T22:01:34.965Z,39.37
2017-09-19T22:04:03.241Z,34.67
2017-09-19T22:06:30.801Z,37.60
2017-09-19T22:08:58.304Z,42.37
2017-09-19T22:11:26.570Z,39.73
2017-09-19T22:13:54.917Z,33.77
2017-09-19T22:16:23.206Z,38.87
2017-09-19T22:18:51.485Z,37.80
2017-09-19T22:21:19.048Z,41.53
2017-09-19T22:23:47.528Z,39.03
2017-09-19T22:26:20.862Z,41.20
2017-09-19T22:28:48.431Z,39.53
2017-09-19T22:31:16.001Z,46.40
2017-09-19T22:33:43.513Z,38.70
2017-09-19T22:36:11.909Z,42.07
2017-09-19T22:38:39.454Z,44.17
2017-09-19T22:41:07.959Z,46.70
2017-09-19T22:43:35.462Z,42.70
2017-09-19T22:46:02.989Z,45.47
2017-09-19T22:48:30.510Z,38.13
2017-09-19T22:50:59.468Z,36.50
2017-09-19T22:53:27.020Z,39.63
2017-09-19T22:55:56.323Z,46.00
2017-09-19T22:58:23.862Z,43.93
2017-09-19T23:00:52.838Z,43.37
2017-09-19T23:03:20.373Z,46.83
2017-09-19T23:05:47.889Z,47.40
2017-09-19T23:08:16.245Z,43.10
2017-09-19T23:10:43.764Z,45.67
2017-09-19T23:13:11.292Z,44.30
2017-09-19T23:15:38.794Z,46.60
2017-09-19T23:18:06.340Z,43.73
2017-09-19T23:20:33.845Z,48.70
2017-09-19T23:23:01.351Z,48.80
2017-09-19T23:25:28.882Z,51.67
2017-09-19T23:27:56.385Z,43.90
2017-09-19T23:30:23.930Z,51.07
2017-09-19T23:32:51.430Z,46.97
2017-09-19T23:35:18.925Z,49.53
2017-09-19T23:37:46.450Z,54.77
2017-09-19T23:40:13.954Z,49.33
2017-09-19T23:42:41.505Z,55.40
2017-09-19T23:45:09.004Z,50.80
2017-09-19T23:47:37.273Z,50.73
2017-09-19T23:50:04.815Z,46.30
2017-09-19T23:52:33.930Z,48.90
2017-09-19T23:55:01.470Z,50.93
2017-09-19T23:57:28.978Z,44.33
2017-09-19T23:59:57.281Z,48.93
